Предлагаем Вашему вниманию английскую версию страницы: AUTOTAF.ME 23711 - aviation weather forecast Troitsko-Pechersk

AUTOTAF 23711 - авиапрогноз Троицко-Печерск

Сегодня рассвет 02:49 UTC, восход солнца 03:38 UTC,
местный полдень 07:59 UTC, заход солнца 12:19 UTC,
наступление темноты 13:08 UTC.

Краткий прогноз 23711 на 9 часов

AUTOTAF.ME 23711 270800Z 2709/2718 21003MPS 9999 BKN008     
  FM271500 20004MPS 2000 SN BR OVC002 
  FM271800 21004MPS 5000 -SN BR OVC008

Детальный прогноз 23711 на 24 часа

AUTOTAF.ME 23711 270800Z 2709/2809 21003MPS 9999 BKN008 TX01/2806Z TNM04/2709Z   
  FM271500 20004MPS 2000 SN BR OVC002 
  FM271800 21004MPS 5000 -SN BR OVC008 
  FM272100 22003MPS 5000 BR OVC003 
  BECMG 2722/2800 2000  
  FM280300 VRB02MPS 3000 -RA BR OVC001

Подробный табличный прогноз

Время (UTC) miniAUTOTAF на 3 ч WX FZLVL
M AGL
ICE TURB Т
(°С)
Тd
(°С)
f(%) QNH
(гПа)
WIND/T
06 VRB02MPS 9999 BKN005 SFC MOD FL170/FL180 -6 -8 88 1028 ...
09 21003MPS 9999 BKN008 SFC MOD FL10/FL190 MOD SFC/FL20 -4 -6 84 1026 ...
12 19003MPS 9999 BKN008 SFC MOD FL10/FL50 MOD SFC/FL20 -4 -6 87 1026 ...
15 20004MPS 2000 SN BR OVC002 SN BR SFC FBL FL10/FL190 -4 -5 95 1024 ...
18 21004MPS 5000 -SN BR OVC008 -SN BR SFC MOD FL10/FL20 MOD SFC/FL20 -2 -4 92 1022 ...
21 22003MPS 5000 BR OVC003 BR SFC MOD FL10/FL20 MOD SFC/FL20 -2 -3 93 1020 ...
28.10.2020
00 VRB02MPS 2000 BR OVC003 BR SFC MOD FL10/FL20 -1 -1 96 1021 ...
03 VRB02MPS 3000 -RA BR OVC001 -RA BR 70 FBL FL70/FL190 0 -0 98 1019 ...
06 21003MPS 3000 -RA BR OVC001 -RA BR 130 MOD FL90/FL100 MOD SFC/FL20 1 0 98 1019 ...
09 21003MPS 3000 -RA BR OVC001 -RA BR 140 FBL FL20/FL170 MOD SFC/FL20 1 1 97 1019 ...
12 21003MPS 3000 BR OVC004 BR 140 MOD FL190/FL200 MOD SFC/FL20 1 0 96 1018 ...
15 20004MPS 3000 BR OVC005 BR 180 MOD FL170/FL180 1 1 97 1017 ...
18 21004MPS 3000 -RA BR OVC005 -RA BR 270 MOD FL90/FL100 2 1 95 1015 ...
21 21005G13MPS 3000 -RA BR OVC004 -RA BR 1950 MOD FL70/FL190 2 1 95 1013 ...
29.10.2020
00 23005G14MPS 3000 -RA BR OVC003 -RA BR 1200 FBL FL50/FL70 4 3 93 1012 ...
03 25006G15MPS 5000 -RA BR BKN012 -RA BR 1050 FBL FL50/FL70 MOD SFC/FL40 5 3 89 1012 ...


Широта 62.7°, долгота 56.2°, высота 139 м абс.
Средняя высота рельефа местности 139 м абс.
Прогнозы обновляются четыре раза в сутки: в 02, 08, 14, 20 ч всемирного времени.


Выбрать прогноз по другой модели Троицко-Печерск
Онлайн-сводка гроз по Троицко-Печерск (для РФ и ближнего зарубежья)
Карта фактических гроз в окрестностях Троицко-Печерск
Динамические прогностические карты (ventusky.com)
Прогностическая карта высоты нижней границы облаков по Троицко-Печерск (windy.com)
Выбрать другой город

Прогноз предназначен для личного научно-познавательного использования частными лицами
и не предназначен для принятия важных решений и выполнения реальных полётов воздушных судов

При копировании или ином использовании любых материалов данного сайта ссылка на © meteocenter.asia обязательна.

0.95/1.4